Time;durP1;ratioP1;P1;durP2;ratioP2;P2;SDS_P1;SDS_P2;PMS_P1;PMS_P2;Temp;Humidity;BMP_temperature;BMP_pressure;BME280_temperature;BME280_humidity;BME280_pressure;Samples;Min_cycle;Max_cycle;Signal;HPM_P1;HPM_P2
2022/05/21 00:00:32;;;;;;;8.82;2.08;;;;;;;;;;9984055;29;20643;-66
2022/05/21 00:05:30;;;;;;;9.63;1.95;;;;;;;;;;9979526;28;20511;-65
2022/05/21 00:10:27;;;;;;;8.07;2.15;;;;;;;;;;9977608;28;20136;-64
2022/05/21 00:15:25;;;;;;;9.07;2.00;;;;;;;;;;9984957;29;20490;-64
2022/05/21 00:25:36;;;;;;;4.30;1.70;;;;;;;;;;9983265;29;20131;-65
2022/05/21 00:30:32;;;;;;;8.70;2.38;;;;;;;;;;9983755;28;20573;-65
2022/05/21 00:35:29;;;;;;;7.57;2.20;;;;;;;;;;10012176;28;20471;-65
2022/05/21 00:40:26;;;;;;;8.27;2.22;;;;;;;;;;9949727;29;20501;-64
2022/05/21 00:45:24;;;;;;;7.88;2.70;;;;;;;;;;10044595;28;20045;-67
2022/05/21 00:50:22;;;;;;;12.15;3.10;;;;;;;;;;9991294;28;20079;-65
2022/05/21 00:55:22;;;;;;;10.10;3.10;;;;;;;;;;9971371;28;20099;-64
2022/05/21 01:00:24;;;;;;;8.48;2.70;;;;;;;;;;9963081;28;20506;-64
2022/05/21 01:05:22;;;;;;;6.78;2.83;;;;;;;;;;9960410;28;20132;-63
2022/05/21 01:10:20;;;;;;;8.30;3.10;;;;;;;;;;9973918;29;20478;-63
2022/05/21 01:15:20;;;;;;;12.07;2.90;;;;;;;;;;9994814;28;20489;-63
2022/05/21 01:20:19;;;;;;;10.20;2.70;;;;;;;;;;9995892;28;20127;-64
2022/05/21 01:25:19;;;;;;;9.75;2.33;;;;;;;;;;9980702;29;20079;-63
2022/05/21 01:30:17;;;;;;;11.45;2.55;;;;;;;;;;10019659;28;20053;-64
2022/05/21 01:35:14;;;;;;;7.45;2.97;;;;;;;;;;10005418;28;20633;-64
2022/05/21 01:40:11;;;;;;;9.15;3.15;;;;;;;;;;10023398;28;20131;-64
2022/05/21 01:45:07;;;;;;;7.47;3.10;;;;;;;;;;9985790;28;20071;-65
2022/05/21 01:50:04;;;;;;;6.03;2.55;;;;;;;;;;9990673;28;20072;-67
2022/05/21 01:55:00;;;;;;;8.73;2.40;;;;;;;;;;10008971;28;20076;-67
2022/05/21 01:59:58;;;;;;;5.63;2.28;;;;;;;;;;9981833;28;20060;-66
2022/05/21 02:04:55;;;;;;;7.68;2.22;;;;;;;;;;9988722;28;20111;-67
2022/05/21 02:09:51;;;;;;;5.72;2.25;;;;;;;;;;9983455;28;20118;-65
2022/05/21 02:14:48;;;;;;;5.60;1.95;;;;;;;;;;9991975;28;20553;-65
2022/05/21 02:19:44;;;;;;;6.80;2.83;;;;;;;;;;9974255;28;20144;-65
2022/05/21 02:24:40;;;;;;;6.85;3.20;;;;;;;;;;9992774;28;20164;-65
2022/05/21 02:29:36;;;;;;;7.35;3.20;;;;;;;;;;9984082;29;20135;-65
2022/05/21 02:34:33;;;;;;;8.60;3.97;;;;;;;;;;10026018;28;20564;-65
2022/05/21 02:39:29;;;;;;;8.40;3.60;;;;;;;;;;9958165;29;20111;-65
2022/05/21 02:44:27;;;;;;;6.32;2.63;;;;;;;;;;10017944;28;20097;-65
2022/05/21 02:49:23;;;;;;;6.78;3.10;;;;;;;;;;9996356;28;20189;-65
2022/05/21 02:54:19;;;;;;;8.43;3.60;;;;;;;;;;10013299;28;20129;-64
2022/05/21 02:59:16;;;;;;;6.60;2.80;;;;;;;;;;10001274;28;20079;-64
2022/05/21 03:04:12;;;;;;;7.72;3.00;;;;;;;;;;10008730;28;20108;-63
2022/05/21 03:14:23;;;;;;;7.57;2.90;;;;;;;;;;9970741;28;20044;-64
2022/05/21 03:19:19;;;;;;;6.60;2.95;;;;;;;;;;9983707;29;20084;-65
2022/05/21 03:24:16;;;;;;;8.15;2.72;;;;;;;;;;10008172;28;20042;-64
2022/05/21 03:29:12;;;;;;;6.70;3.22;;;;;;;;;;10084689;28;20143;-64
2022/05/21 03:34:09;;;;;;;6.70;2.50;;;;;;;;;;10005317;28;20052;-64
2022/05/21 03:39:05;;;;;;;8.18;2.60;;;;;;;;;;9979814;29;20139;-64
2022/05/21 03:44:02;;;;;;;6.75;2.78;;;;;;;;;;10006775;28;20077;-65
2022/05/21 03:48:58;;;;;;;10.35;3.03;;;;;;;;;;10118127;28;20129;-65
2022/05/21 03:53:55;;;;;;;7.20;2.70;;;;;;;;;;10009908;28;20105;-64
2022/05/21 03:58:51;;;;;;;8.05;2.70;;;;;;;;;;9981085;28;20236;-64
2022/05/21 04:03:50;;;;;;;7.53;2.60;;;;;;;;;;9982198;28;20143;-65
2022/05/21 04:08:46;;;;;;;6.63;2.55;;;;;;;;;;9977652;28;20324;-64
2022/05/21 04:13:43;;;;;;;7.30;2.47;;;;;;;;;;9971473;28;20083;-65
2022/05/21 04:18:39;;;;;;;9.00;2.70;;;;;;;;;;9988149;29;20561;-65
2022/05/21 04:23:35;;;;;;;6.10;2.67;;;;;;;;;;9967275;28;20191;-64
2022/05/21 04:28:32;;;;;;;7.25;3.10;;;;;;;;;;9969049;28;20139;-65
2022/05/21 04:33:28;;;;;;;10.20;4.70;;;;;;;;;;9954601;28;20135;-64
2022/05/21 04:38:25;;;;;;;8.27;4.78;;;;;;;;;;9972300;29;20079;-65
2022/05/21 04:43:22;;;;;;;10.85;5.70;;;;;;;;;;9981479;29;20209;-64
2022/05/21 04:48:18;;;;;;;10.48;6.57;;;;;;;;;;10012079;28;20130;-64
2022/05/21 04:53:14;;;;;;;11.57;6.45;;;;;;;;;;9987159;28;20103;-65
2022/05/21 04:58:11;;;;;;;12.90;9.07;;;;;;;;;;9994390;28;20111;-65
2022/05/21 05:03:14;;;;;;;14.40;10.35;;;;;;;;;;9984260;29;20048;-65
2022/05/21 05:08:11;;;;;;;17.77;12.38;;;;;;;;;;10001436;28;20098;-65
2022/05/21 05:13:07;;;;;;;21.42;14.73;;;;;;;;;;9990324;29;20075;-64
2022/05/21 05:18:05;;;;;;;18.30;13.68;;;;;;;;;;9985802;28;20044;-64
2022/05/21 05:23:02;;;;;;;17.15;14.00;;;;;;;;;;9959227;28;20135;-64
2022/05/21 05:27:59;;;;;;;18.88;13.32;;;;;;;;;;9957554;28;20068;-65
2022/05/21 05:32:55;;;;;;;22.58;16.05;;;;;;;;;;9945543;28;20145;-64
2022/05/21 05:37:51;;;;;;;24.17;15.18;;;;;;;;;;9949622;28;20140;-63
2022/05/21 05:42:48;;;;;;;25.55;15.13;;;;;;;;;;9953731;28;20043;-64
2022/05/21 05:47:44;;;;;;;22.30;15.38;;;;;;;;;;9961235;28;20093;-64
2022/05/21 05:52:41;;;;;;;20.77;15.55;;;;;;;;;;9977084;28;20084;-64
2022/05/21 05:57:37;;;;;;;25.38;15.88;;;;;;;;;;9992980;28;20165;-64
2022/05/21 06:07:53;;;;;;;22.52;17.30;;;;;;;;;;9974686;28;20497;-64
2022/05/21 06:12:49;;;;;;;21.45;17.25;;;;;;;;;;9980156;28;20048;-65
2022/05/21 06:17:45;;;;;;;23.25;19.25;;;;;;;;;;9992415;28;20099;-64
2022/05/21 06:22:42;;;;;;;29.77;20.35;;;;;;;;;;9987850;28;20095;-64
2022/05/21 06:27:39;;;;;;;28.52;20.38;;;;;;;;;;9984238;28;20107;-63
2022/05/21 06:32:35;;;;;;;30.40;20.15;;;;;;;;;;9998867;28;20143;-64
2022/05/21 06:37:32;;;;;;;30.25;21.60;;;;;;;;;;9990252;28;20458;-62
2022/05/21 06:42:29;;;;;;;28.63;20.02;;;;;;;;;;9989815;28;20128;-64
2022/05/21 06:47:26;;;;;;;30.55;22.20;;;;;;;;;;9986349;28;20139;-65
2022/05/21 06:52:24;;;;;;;27.13;21.40;;;;;;;;;;9989783;28;20115;-64
2022/05/21 06:57:21;;;;;;;28.40;21.00;;;;;;;;;;9959378;28;20553;-64
2022/05/21 07:02:17;;;;;;;31.48;21.88;;;;;;;;;;9957387;28;20127;-65
2022/05/21 07:12:29;;;;;;;28.15;20.02;;;;;;;;;;9964530;28;20136;-67
2022/05/21 07:17:26;;;;;;;27.55;19.60;;;;;;;;;;9969446;28;20044;-64
2022/05/21 07:22:23;;;;;;;24.20;19.02;;;;;;;;;;9962163;28;20091;-64
2022/05/21 07:27:19;;;;;;;23.95;17.02;;;;;;;;;;9971299;28;20384;-64
2022/05/21 07:32:20;;;;;;;23.40;16.33;;;;;;;;;;9952847;28;20048;-64
2022/05/21 07:37:17;;;;;;;26.08;15.90;;;;;;;;;;9967475;28;20145;-64
2022/05/21 07:42:13;;;;;;;22.17;15.35;;;;;;;;;;9967697;28;20037;-64
2022/05/21 07:47:09;;;;;;;22.08;14.93;;;;;;;;;;9979456;28;20072;-64
2022/05/21 07:52:06;;;;;;;20.35;13.13;;;;;;;;;;9957024;28;20557;-63
2022/05/21 07:57:02;;;;;;;21.85;12.55;;;;;;;;;;9954538;28;20075;-63
2022/05/21 08:01:59;;;;;;;20.25;11.45;;;;;;;;;;9965042;28;20051;-64
2022/05/21 08:06:55;;;;;;;21.63;11.82;;;;;;;;;;9989376;28;20583;-65
2022/05/21 08:11:52;;;;;;;19.42;11.48;;;;;;;;;;9965576;28;20135;-65
2022/05/21 08:16:49;;;;;;;19.80;10.98;;;;;;;;;;9963337;28;20076;-65
2022/05/21 08:21:45;;;;;;;17.38;11.10;;;;;;;;;;9961578;28;20475;-65
2022/05/21 08:26:59;;;;;;;19.83;11.40;;;;;;;;;;9955715;28;20857;-65
2022/05/21 08:31:55;;;;;;;18.85;11.23;;;;;;;;;;9958596;28;20114;-64
2022/05/21 08:36:53;;;;;;;17.85;8.70;;;;;;;;;;9964525;28;20433;-65
2022/05/21 08:41:54;;;;;;;14.93;6.78;;;;;;;;;;9976974;29;20052;-65
2022/05/21 08:46:56;;;;;;;11.63;5.25;;;;;;;;;;9967267;28;20470;-65
2022/05/21 08:51:56;;;;;;;9.95;3.72;;;;;;;;;;9969560;28;20052;-65
2022/05/21 08:56:54;;;;;;;12.25;3.63;;;;;;;;;;9962649;28;20134;-65
2022/05/21 09:01:51;;;;;;;7.43;2.35;;;;;;;;;;9964049;28;20131;-65
2022/05/21 09:06:56;;;;;;;8.82;1.88;;;;;;;;;;9959600;28;20150;-65
2022/05/21 09:12:02;;;;;;;4.22;1.80;;;;;;;;;;9966360;28;20152;-65
2022/05/21 09:17:00;;;;;;;4.65;2.10;;;;;;;;;;10011031;28;20078;-65
2022/05/21 09:22:01;;;;;;;6.70;2.00;;;;;;;;;;9986383;28;20056;-65
2022/05/21 09:26:57;;;;;;;10.20;2.53;;;;;;;;;;9970442;28;20049;-65
2022/05/21 09:31:54;;;;;;;11.82;1.92;;;;;;;;;;9974622;29;20075;-66
2022/05/21 09:36:51;;;;;;;8.43;1.83;;;;;;;;;;9983258;28;20062;-64
2022/05/21 09:41:47;;;;;;;12.40;2.05;;;;;;;;;;9982720;29;20102;-67
2022/05/21 09:46:44;;;;;;;6.72;1.70;;;;;;;;;;9979200;28;20500;-67
2022/05/21 09:51:51;;;;;;;9.25;1.63;;;;;;;;;;9965351;29;20056;-66
2022/05/21 09:56:48;;;;;;;7.25;1.45;;;;;;;;;;9976987;28;20571;-67
2022/05/21 10:01:46;;;;;;;4.78;1.35;;;;;;;;;;9986252;29;20082;-67
2022/05/21 10:06:45;;;;;;;5.38;1.25;;;;;;;;;;10024050;28;20057;-66
2022/05/21 10:12:03;;;;;;;9.57;1.50;;;;;;;;;;9989052;28;20511;-67
2022/05/21 10:17:04;;;;;;;7.50;1.58;;;;;;;;;;9968263;28;20123;-69
2022/05/21 10:22:07;;;;;;;12.18;1.75;;;;;;;;;;9972582;28;20139;-66
2022/05/21 10:27:12;;;;;;;10.55;1.45;;;;;;;;;;9961748;28;20107;-67
2022/05/21 10:32:21;;;;;;;8.38;1.70;;;;;;;;;;9966239;28;20080;-66
2022/05/21 10:37:52;;;;;;;8.63;1.52;;;;;;;;;;9963627;28;20070;-66
2022/05/21 10:42:54;;;;;;;7.85;1.33;;;;;;;;;;9971010;28;20055;-65
2022/05/21 10:48:09;;;;;;;8.90;1.60;;;;;;;;;;9978589;28;20569;-65
2022/05/21 10:53:15;;;;;;;12.40;1.60;;;;;;;;;;9982402;29;20088;-68
2022/05/21 10:58:28;;;;;;;6.28;1.52;;;;;;;;;;9983493;28;20525;-68
2022/05/21 11:03:24;;;;;;;;;;;;;;;;;;9991597;29;20140;-68
2022/05/21 11:08:39;;;;;;;9.32;1.25;;;;;;;;;;9971145;28;20030;-65
2022/05/21 11:13:41;;;;;;;6.75;1.10;;;;;;;;;;10074422;28;20528;-63
2022/05/21 11:19:13;;;;;;;6.60;1.00;;;;;;;;;;9981555;28;20111;-65
2022/05/21 11:24:12;;;;;;;9.52;1.20;;;;;;;;;;10056572;28;20558;-63
2022/05/21 11:29:08;;;;;;;4.97;0.70;;;;;;;;;;9977831;29;20083;-63
2022/05/21 11:39:20;;;;;;;6.25;0.98;;;;;;;;;;9985538;28;20091;-65
2022/05/21 11:49:32;;;;;;;6.55;1.05;;;;;;;;;;9959736;28;20079;-65
2022/05/21 11:54:52;;;;;;;6.20;1.50;;;;;;;;;;9963553;28;20705;-66
2022/05/21 11:59:49;;;;;;;6.00;1.67;;;;;;;;;;9985454;28;20040;-64
2022/05/21 12:04:47;;;;;;;9.23;1.83;;;;;;;;;;9960072;28;20161;-63
2022/05/21 12:09:58;;;;;;;6.93;1.10;;;;;;;;;;9949551;28;20672;-63
2022/05/21 12:14:56;;;;;;;7.85;1.02;;;;;;;;;;9955292;28;20044;-63
2022/05/21 12:19:53;;;;;;;5.05;1.33;;;;;;;;;;9968077;28;20143;-63
2022/05/21 12:24:49;;;;;;;6.90;1.00;;;;;;;;;;9960387;28;20410;-63
2022/05/21 12:29:46;;;;;;;4.90;0.70;;;;;;;;;;9963598;28;20049;-63
2022/05/21 12:35:01;;;;;;;5.28;0.82;;;;;;;;;;9992513;28;20136;-64
2022/05/21 12:40:16;;;;;;;6.05;1.25;;;;;;;;;;9946343;28;20052;-64
2022/05/21 12:45:14;;;;;;;8.15;1.00;;;;;;;;;;9957405;28;20139;-65
2022/05/21 12:50:15;;;;;;;5.80;1.15;;;;;;;;;;9958022;28;20131;-65
2022/05/21 12:55:16;;;;;;;8.90;1.70;;;;;;;;;;9958078;28;20084;-64
2022/05/21 13:00:14;;;;;;;7.50;1.60;;;;;;;;;;9970187;28;20048;-65
2022/05/21 13:05:16;;;;;;;9.82;1.55;;;;;;;;;;9984271;28;20391;-65
2022/05/21 13:10:14;;;;;;;10.85;1.05;;;;;;;;;;9982875;28;20045;-64
2022/05/21 13:15:12;;;;;;;6.53;1.40;;;;;;;;;;9988150;28;20139;-64
2022/05/21 13:20:11;;;;;;;6.07;1.20;;;;;;;;;;10000675;28;20131;-65
2022/05/21 13:25:12;;;;;;;6.03;0.75;;;;;;;;;;9959740;28;20044;-65
2022/05/21 13:30:11;;;;;;;8.50;1.30;;;;;;;;;;9951950;28;20051;-64
2022/05/21 13:35:26;;;;;;;8.88;1.77;;;;;;;;;;9940534;28;20049;-64
2022/05/21 13:40:24;;;;;;;11.35;1.58;;;;;;;;;;9949638;28;20135;-64
2022/05/21 13:45:26;;;;;;;4.93;1.35;;;;;;;;;;9961058;28;20123;-64
2022/05/21 13:50:24;;;;;;;12.68;2.95;;;;;;;;;;9975162;28;20084;-65
2022/05/21 13:55:20;;;;;;;7.38;1.38;;;;;;;;;;9998186;28;20482;-64
2022/05/21 14:00:20;;;;;;;6.90;1.02;;;;;;;;;;9991585;28;20091;-65
2022/05/21 14:05:21;;;;;;;6.70;0.80;;;;;;;;;;9965474;28;20136;-66
2022/05/21 14:10:28;;;;;;;8.52;1.20;;;;;;;;;;9976967;28;20110;-66
2022/05/21 14:15:29;;;;;;;5.93;1.10;;;;;;;;;;9978681;28;20099;-64
2022/05/21 14:20:30;;;;;;;6.38;1.00;;;;;;;;;;9980871;28;20044;-65
2022/05/21 14:25:34;;;;;;;5.90;1.00;;;;;;;;;;9973411;28;20045;-65
2022/05/21 14:30:32;;;;;;;7.75;1.45;;;;;;;;;;9982336;28;20096;-65
2022/05/21 14:35:28;;;;;;;9.63;1.38;;;;;;;;;;10007057;28;20087;-65
2022/05/21 14:40:26;;;;;;;5.93;1.20;;;;;;;;;;9995378;28;20064;-65
2022/05/21 14:45:27;;;;;;;5.78;0.90;;;;;;;;;;9993442;28;20447;-65
2022/05/21 14:55:41;;;;;;;7.68;1.70;;;;;;;;;;9968568;28;20053;-64
2022/05/21 15:00:38;;;;;;;10.43;1.38;;;;;;;;;;10001721;28;20159;-64
2022/05/21 15:05:36;;;;;;;8.90;2.95;;;;;;;;;;9981078;28;20068;-64
2022/05/21 15:10:32;;;;;;;12.25;5.32;;;;;;;;;;9985746;28;21467;-64
2022/05/21 15:15:28;;;;;;;9.93;1.60;;;;;;;;;;9986703;28;20132;-64
2022/05/21 15:20:25;;;;;;;6.50;1.90;;;;;;;;;;9966393;28;20044;-64
2022/05/21 15:25:22;;;;;;;5.80;1.67;;;;;;;;;;9966916;28;20067;-64
2022/05/21 15:30:19;;;;;;;9.93;1.60;;;;;;;;;;9984342;28;20076;-64
2022/05/21 15:35:15;;;;;;;6.97;1.05;;;;;;;;;;9976865;28;20142;-64
2022/05/21 15:40:12;;;;;;;11.98;1.48;;;;;;;;;;9987959;28;20052;-64
2022/05/21 15:45:09;;;;;;;104.53;79.30;;;;;;;;;;10002778;28;20524;-64
2022/05/21 15:50:08;;;;;;;10.35;1.85;;;;;;;;;;9979964;28;20048;-64
2022/05/21 15:55:06;;;;;;;11.68;1.67;;;;;;;;;;9988438;28;20134;-64
2022/05/21 16:00:04;;;;;;;8.00;1.90;;;;;;;;;;9969578;28;20072;-64
2022/05/21 16:05:02;;;;;;;7.85;2.00;;;;;;;;;;9985654;28;20765;-64
2022/05/21 16:09:58;;;;;;;10.13;2.03;;;;;;;;;;9963768;28;20127;-64
2022/05/21 16:14:56;;;;;;;5.72;1.33;;;;;;;;;;9939361;28;20052;-64
2022/05/21 16:19:52;;;;;;;8.85;1.45;;;;;;;;;;9998123;28;20075;-64
2022/05/21 16:24:49;;;;;;;7.53;1.48;;;;;;;;;;9976474;28;20038;-64
2022/05/21 16:29:47;;;;;;;8.50;1.60;;;;;;;;;;9956337;28;20072;-65
2022/05/21 16:34:44;;;;;;;11.30;1.60;;;;;;;;;;9964620;28;20151;-65
2022/05/21 16:39:40;;;;;;;11.55;2.20;;;;;;;;;;9952066;28;20134;-65
2022/05/21 16:44:37;;;;;;;9.40;2.03;;;;;;;;;;9968909;28;20077;-65
2022/05/21 16:49:34;;;;;;;9.05;1.25;;;;;;;;;;9969944;28;20125;-65
2022/05/21 16:54:31;;;;;;;7.35;1.20;;;;;;;;;;9984124;28;20642;-65
2022/05/21 16:59:29;;;;;;;7.80;2.25;;;;;;;;;;10001230;28;20045;-65
2022/05/21 17:04:26;;;;;;;11.10;1.85;;;;;;;;;;9967169;28;20525;-64
2022/05/21 17:09:23;;;;;;;6.28;1.05;;;;;;;;;;9975950;28;20137;-65
2022/05/21 17:14:19;;;;;;;5.88;1.20;;;;;;;;;;9992364;28;20173;-65
2022/05/21 17:19:16;;;;;;;6.63;1.20;;;;;;;;;;9986310;28;20048;-64
2022/05/21 17:24:12;;;;;;;6.47;1.35;;;;;;;;;;9956881;28;20084;-65
2022/05/21 17:34:24;;;;;;;5.88;1.35;;;;;;;;;;9943390;28;20286;-66
2022/05/21 17:39:21;;;;;;;10.70;2.20;;;;;;;;;;9947176;28;20143;-66
2022/05/21 17:44:19;;;;;;;10.32;1.80;;;;;;;;;;9964774;28;20107;-65
2022/05/21 17:49:16;;;;;;;9.80;2.38;;;;;;;;;;9961627;28;20749;-65
2022/05/21 17:54:15;;;;;;;7.60;1.60;;;;;;;;;;9963977;28;20147;-65
2022/05/21 17:59:12;;;;;;;8.20;1.65;;;;;;;;;;9971411;28;20052;-65
2022/05/21 18:04:08;;;;;;;11.05;1.50;;;;;;;;;;9977845;28;20084;-65
2022/05/21 18:09:04;;;;;;;9.63;2.20;;;;;;;;;;9965485;28;20139;-66
2022/05/21 18:14:07;;;;;;;8.70;1.63;;;;;;;;;;9956366;28;20049;-66
2022/05/21 18:19:22;;;;;;;11.50;2.63;;;;;;;;;;9961960;28;20079;-65
2022/05/21 18:24:19;;;;;;;8.50;2.03;;;;;;;;;;9962455;28;20048;-65
2022/05/21 18:29:17;;;;;;;14.02;1.90;;;;;;;;;;9973877;28;20045;-64
2022/05/21 18:34:13;;;;;;;10.57;2.70;;;;;;;;;;9992498;28;20106;-65
2022/05/21 18:39:10;;;;;;;5.32;1.38;;;;;;;;;;9973335;28;20138;-65
2022/05/21 18:44:07;;;;;;;10.60;1.50;;;;;;;;;;9971769;28;20147;-65
2022/05/21 18:49:04;;;;;;;14.57;3.40;;;;;;;;;;9958466;28;20605;-65
2022/05/21 18:54:01;;;;;;;13.98;2.38;;;;;;;;;;9969076;28;20160;-65
2022/05/21 18:58:57;;;;;;;9.25;2.00;;;;;;;;;;9955168;28;20068;-65
2022/05/21 19:03:54;;;;;;;9.70;1.70;;;;;;;;;;9964027;28;20044;-65
2022/05/21 19:08:51;;;;;;;8.25;2.70;;;;;;;;;;9963104;28;20048;-65
2022/05/21 19:13:47;;;;;;;8.98;2.22;;;;;;;;;;9977603;28;20164;-65
2022/05/21 19:23:59;;;;;;;10.93;1.88;;;;;;;;;;9984095;28;20131;-65
2022/05/21 19:28:55;;;;;;;11.60;2.25;;;;;;;;;;9981059;29;20086;-65
2022/05/21 19:33:51;;;;;;;6.40;1.25;;;;;;;;;;9987679;28;20048;-65
2022/05/21 19:38:48;;;;;;;6.75;1.60;;;;;;;;;;9968377;28;20127;-65
2022/05/21 19:43:45;;;;;;;6.85;1.17;;;;;;;;;;9969030;28;20049;-65
2022/05/21 19:48:42;;;;;;;11.48;1.90;;;;;;;;;;9981319;29;20053;-64
2022/05/21 19:53:39;;;;;;;10.80;1.92;;;;;;;;;;9976010;28;20053;-65
2022/05/21 19:58:40;;;;;;;8.48;1.63;;;;;;;;;;9983141;28;20092;-64
2022/05/21 20:03:36;;;;;;;11.07;1.65;;;;;;;;;;9990066;28;20617;-65
2022/05/21 20:08:33;;;;;;;7.90;1.70;;;;;;;;;;9975087;28;20071;-65
2022/05/21 20:13:30;;;;;;;12.32;1.50;;;;;;;;;;9974943;28;20056;-65
2022/05/21 20:18:26;;;;;;;8.70;1.70;;;;;;;;;;9978201;29;20165;-65
2022/05/21 20:23:22;;;;;;;12.00;2.00;;;;;;;;;;9969535;29;20040;-65
2022/05/21 20:28:19;;;;;;;14.35;2.20;;;;;;;;;;10006747;28;20155;-65
2022/05/21 20:33:19;;;;;;;9.43;1.70;;;;;;;;;;9967857;28;20041;-65
2022/05/21 20:38:16;;;;;;;11.05;2.60;;;;;;;;;;10020433;28;20079;-65
2022/05/21 20:43:12;;;;;;;11.63;1.75;;;;;;;;;;9976006;28;20675;-65
2022/05/21 20:53:24;;;;;;;12.90;2.28;;;;;;;;;;9984377;29;20546;-65
2022/05/21 20:58:20;;;;;;;15.20;2.65;;;;;;;;;;9985360;28;20729;-64
2022/05/21 21:03:16;;;;;;;16.27;2.88;;;;;;;;;;10028617;28;20098;-65
2022/05/21 21:08:12;;;;;;;15.32;2.28;;;;;;;;;;9985253;28;20049;-65
2022/05/21 21:13:09;;;;;;;8.27;1.95;;;;;;;;;;9983034;28;20048;-65
2022/05/21 21:18:05;;;;;;;13.65;2.60;;;;;;;;;;10020287;28;20131;-65
2022/05/21 21:23:02;;;;;;;14.65;2.58;;;;;;;;;;9994908;28;20044;-67
2022/05/21 21:27:58;;;;;;;10.38;1.85;;;;;;;;;;9964653;28;20663;-66
2022/05/21 21:32:55;;;;;;;13.13;2.33;;;;;;;;;;9984846;29;20052;-66
2022/05/21 21:37:51;;;;;;;16.50;3.42;;;;;;;;;;9975328;28;20072;-67
2022/05/21 21:42:47;;;;;;;13.18;2.38;;;;;;;;;;9970020;29;20067;-67
2022/05/21 21:47:44;;;;;;;18.60;3.45;;;;;;;;;;10048725;28;20598;-67
2022/05/21 21:52:40;;;;;;;11.50;2.45;;;;;;;;;;10015798;28;20055;-67
2022/05/21 21:57:37;;;;;;;21.13;3.00;;;;;;;;;;9972624;28;20071;-67
2022/05/21 22:02:34;;;;;;;13.43;3.38;;;;;;;;;;10025352;28;20267;-67
2022/05/21 22:07:41;;;;;;;11.93;3.38;;;;;;;;;;9957849;28;20473;-66
2022/05/21 22:12:37;;;;;;;15.27;2.70;;;;;;;;;;9956865;28;20257;-66
2022/05/21 22:17:34;;;;;;;10.52;2.80;;;;;;;;;;9977232;28;20132;-67
2022/05/21 22:22:31;;;;;;;16.35;2.00;;;;;;;;;;9985504;28;20087;-66
2022/05/21 22:27:27;;;;;;;19.00;3.53;;;;;;;;;;9991579;28;20548;-64
2022/05/21 22:32:23;;;;;;;17.13;3.50;;;;;;;;;;9993845;28;20087;-64
2022/05/21 22:37:20;;;;;;;14.38;2.75;;;;;;;;;;9988446;28;20103;-67
2022/05/21 22:42:16;;;;;;;16.58;2.88;;;;;;;;;;9983387;28;20159;-67
2022/05/21 22:47:12;;;;;;;13.40;2.78;;;;;;;;;;9964364;28;20132;-67
2022/05/21 22:52:09;;;;;;;11.85;2.40;;;;;;;;;;9969562;28;20167;-66
2022/05/21 22:57:05;;;;;;;8.85;2.35;;;;;;;;;;9992539;28;20568;-67
2022/05/21 23:02:02;;;;;;;13.32;3.03;;;;;;;;;;9966119;29;20627;-66
2022/05/21 23:06:58;;;;;;;16.60;3.90;;;;;;;;;;10061135;28;20079;-67
2022/05/21 23:11:54;;;;;;;15.50;2.22;;;;;;;;;;9984350;28;20052;-67
2022/05/21 23:22:24;;;;;;;12.77;2.75;;;;;;;;;;9981936;28;20082;-63
2022/05/21 23:27:20;;;;;;;17.33;2.03;;;;;;;;;;10002724;28;20066;-64
2022/05/21 23:32:17;;;;;;;13.88;2.70;;;;;;;;;;9977990;28;20363;-64
2022/05/21 23:37:15;;;;;;;16.90;2.83;;;;;;;;;;9982480;28;20090;-66
2022/05/21 23:42:11;;;;;;;14.45;2.97;;;;;;;;;;9983778;29;20455;-65
2022/05/21 23:47:09;;;;;;;17.65;4.03;;;;;;;;;;9991273;28;20219;-65
2022/05/21 23:52:07;;;;;;;15.40;2.63;;;;;;;;;;9970693;28;20135;-65
2022/05/21 23:57:04;;;;;;;11.68;2.45;;;;;;;;;;9990243;28;20056;-65
